Time;durP1;ratioP1;P1;durP2;ratioP2;P2;SDS_P1;SDS_P2;PMS_P1;PMS_P2;Temp;Humidity;BMP_temperature;BMP_pressure;BME280_temperature;BME280_humidity;BME280_pressure;Samples;Min_cycle;Max_cycle;Signal;HPM_P1;HPM_P2
2021/03/24 00:03:25;;;;;;;8.02;5.78;;;20.90;45.60;;;;;;20880580;28;20760;-20
2021/03/24 00:13:25;;;;;;;16.27;6.50;;;20.90;45.80;;;;;;20881567;28;20082;-20
2021/03/24 00:23:26;;;;;;;6.67;5.43;;;20.80;45.90;;;;;;20887230;28;20455;-25
2021/03/24 00:33:27;;;;;;;8.88;6.13;;;20.70;46.00;;;;;;20887745;28;20025;-21
2021/03/24 00:43:27;;;;;;;9.32;6.90;;;20.70;46.40;;;;;;20888200;28;20025;-23
2021/03/24 00:53:28;;;;;;;8.65;6.57;;;20.60;46.30;;;;;;20885876;28;20033;-22
2021/03/24 01:03:28;;;;;;;11.88;6.72;;;20.70;46.40;;;;;;20862660;28;20061;-20
2021/03/24 03:46:51;;;;;;;7.53;6.68;;;19.90;47.50;;;;;;20848569;28;20036;-21
2021/03/24 03:57:07;;;;;;;9.48;6.38;;;19.80;47.50;;;;;;20833849;23;20067;-24
2021/03/24 04:07:31;;;;;;;8.35;7.43;;;19.80;47.60;;;;;;20799039;28;20017;-24
2021/03/24 04:17:40;;;;;;;9.25;6.60;;;19.80;47.60;;;;;;20822432;28;20037;-24
2021/03/24 04:27:44;;;;;;;13.30;7.70;;;19.70;47.50;;;;;;20820886;28;20104;-23
2021/03/24 04:37:49;;;;;;;7.88;7.07;;;19.70;47.50;;;;;;20833773;28;20014;-24
2021/03/24 04:47:53;;;;;;;7.95;6.60;;;19.70;47.50;;;;;;20836132;28;20034;-24
2021/03/24 04:57:59;;;;;;;10.35;8.13;;;19.70;47.40;;;;;;20835014;28;20371;-23
2021/03/24 05:08:18;;;;;;;8.40;6.90;;;19.60;47.20;;;;;;20834322;28;20021;-20
2021/03/24 05:18:19;;;;;;;9.13;7.00;;;19.60;47.10;;;;;;20833645;28;20071;-24
2021/03/24 05:28:23;;;;;;;9.10;6.93;;;19.90;46.30;;;;;;20804177;28;20033;-23
2021/03/24 05:38:38;;;;;;;9.85;7.07;;;20.50;45.70;;;;;;20807534;28;20034;-23
2021/03/24 05:49:04;;;;;;;9.43;7.30;;;21.20;44.30;;;;;;20803971;28;20056;-24
2021/03/24 05:59:36;;;;;;;11.18;7.13;;;21.80;42.70;;;;;;20791768;28;20401;-23
2021/03/24 06:10:00;;;;;;;8.57;6.22;;;22.30;41.50;;;;;;20813328;28;20108;-24
2021/03/24 06:20:09;;;;;;;7.28;5.70;;;22.60;41.10;;;;;;20829263;28;20119;-23
2021/03/24 06:30:48;;;;;;;7.88;6.57;;;22.30;41.40;;;;;;20817606;28;20045;-22
2021/03/24 06:41:22;;;;;;;26.85;11.07;;;22.10;41.70;;;;;;20810462;28;20033;-19
2021/03/24 06:51:53;;;;;;;21.13;15.38;;;21.90;41.70;;;;;;20795336;28;20041;-21
2021/03/24 07:02:13;;;;;;;34.22;17.83;;;21.60;40.80;;;;;;20825307;28;20406;-23
2021/03/24 07:12:58;;;;;;;28.52;21.05;;;21.50;40.10;;;;;;20755765;28;20109;-22
2021/03/24 07:23:17;;;;;;;26.27;19.17;;;21.30;39.80;;;;;;20664215;28;20050;-20
2021/03/24 07:33:23;;;;;;;25.20;20.80;;;21.20;39.00;;;;;;20663100;28;20034;-23
2021/03/24 07:43:51;;;;;;;24.55;18.77;;;21.20;38.60;;;;;;20689221;28;20049;-23
2021/03/24 07:54:16;;;;;;;21.63;16.43;;;21.40;38.20;;;;;;20664403;28;20442;-20
2021/03/24 08:04:33;;;;;;;15.98;14.23;;;21.30;39.40;;;;;;20692428;28;20030;-23
2021/03/24 08:14:40;;;;;;;20.20;13.52;;;21.50;39.50;;;;;;20679157;28;20160;-24
2021/03/24 08:25:10;;;;;;;15.90;12.20;;;21.40;39.90;;;;;;20719390;28;20022;-23
2021/03/24 08:35:36;;;;;;;14.63;12.82;;;21.30;40.00;;;;;;20741588;28;20036;-21
2021/03/24 08:46:05;;;;;;;19.83;12.45;;;21.30;40.40;;;;;;20700283;28;20490;-21
2021/03/24 08:56:33;;;;;;;21.00;12.45;;;21.10;40.70;;;;;;20750123;28;20042;-22
2021/03/24 09:06:46;;;;;;;15.07;12.50;;;20.90;40.80;;;;;;20714755;28;20069;-19
2021/03/24 09:16:46;;;;;;;15.52;13.25;;;20.90;41.10;;;;;;20717629;28;20040;-23
2021/03/24 09:27:06;;;;;;;17.25;12.65;;;20.70;41.20;;;;;;20744567;28;20050;-23
2021/03/24 09:37:10;;;;;;;18.52;12.35;;;20.70;41.40;;;;;;20679691;28;20030;-20
2021/03/24 09:47:24;;;;;;;18.63;13.23;;;20.60;41.30;;;;;;20680220;28;20168;-20
2021/03/24 09:57:32;;;;;;;17.42;12.65;;;20.60;41.60;;;;;;20670887;28;20138;-19
2021/03/24 10:07:38;;;;;;;16.10;10.57;;;20.50;41.60;;;;;;20724844;28;20038;-21
2021/03/24 10:18:08;;;;;;;16.65;11.95;;;20.50;41.70;;;;;;20701248;28;20081;-19
2021/03/24 10:28:20;;;;;;;17.02;10.45;;;20.50;41.90;;;;;;20738522;28;20146;-21
2021/03/24 10:38:47;;;;;;;11.15;9.32;;;20.40;41.80;;;;;;20760763;23;20072;-22
2021/03/24 10:49:04;;;;;;;11.95;8.20;;;20.30;42.10;;;;;;20781726;28;20346;-23
2021/03/24 10:59:04;;;;;;;14.45;6.75;;;20.20;42.30;;;;;;20826531;28;20043;-20
2021/03/24 11:09:14;;;;;;;13.90;7.70;;;20.20;42.70;;;;;;20774915;28;20057;-23
2021/03/24 11:19:22;;;;;;;27.58;7.10;;;20.20;43.00;;;;;;20803250;28;20053;-19
2021/03/24 11:29:24;;;;;;;9.57;6.18;;;20.10;43.20;;;;;;20816820;28;20025;-21
2021/03/24 11:39:44;;;;;;;12.85;6.90;;;19.90;42.90;;;;;;20823964;28;20034;-22
2021/03/24 11:50:09;;;;;;;9.48;5.93;;;20.00;43.10;;;;;;20824016;28;20159;-21
2021/03/24 12:00:10;;;;;;;12.57;5.80;;;20.00;43.00;;;;;;20824030;28;20131;-23
2021/03/24 12:10:10;;;;;;;11.35;6.32;;;19.90;43.00;;;;;;20776518;28;20029;-25
2021/03/24 12:20:14;;;;;;;9.98;6.65;;;19.90;42.80;;;;;;20822945;28;20120;-24
2021/03/24 12:30:33;;;;;;;10.32;6.68;;;19.90;42.70;;;;;;20835307;28;20021;-21
2021/03/24 12:40:45;;;;;;;8.45;5.75;;;19.80;42.50;;;;;;20841165;28;20091;-21
2021/03/24 12:50:57;;;;;;;7.15;5.82;;;19.80;42.40;;;;;;20850384;28;20524;-23
2021/03/24 13:01:34;;;;;;;16.60;9.13;;;20.00;42.50;;;;;;20877167;28;20063;-22
2021/03/24 13:11:48;;;;;;;10.48;6.30;;;19.70;42.50;;;;;;20842828;28;20036;-24
2021/03/24 13:22:23;;;;;;;11.20;7.20;;;19.70;42.40;;;;;;20835671;28;20033;-24
2021/03/24 13:32:41;;;;;;;41.85;12.15;;;19.70;42.00;;;;;;20500003;28;20043;-22
2021/03/24 13:42:44;;;;;;;9.48;6.97;;;19.70;41.90;;;;;;20498317;28;20484;-21
2021/03/24 13:52:56;;;;;;;9.10;6.95;;;19.70;41.70;;;;;;20505606;28;20043;-20
2021/03/24 14:03:15;;;;;;;11.10;6.70;;;19.50;41.30;;;;;;20583361;28;20445;-22
2021/03/24 14:13:16;;;;;;;10.93;6.45;;;19.70;41.40;;;;;;20833857;28;20021;-21
2021/03/24 14:23:39;;;;;;;12.32;8.38;;;19.70;41.60;;;;;;20830369;28;20473;-22
2021/03/24 14:33:44;;;;;;;12.05;6.45;;;19.70;41.40;;;;;;20828636;28;20386;-19
2021/03/24 14:43:47;;;;;;;11.75;6.28;;;19.70;41.40;;;;;;20829653;28;20425;-22
2021/03/24 14:53:48;;;;;;;13.85;6.03;;;19.60;41.40;;;;;;20829797;28;20029;-21
2021/03/24 15:03:50;;;;;;;10.82;5.05;;;19.70;41.50;;;;;;20825170;28;20020;-20
2021/03/24 15:13:50;;;;;;;11.30;5.88;;;19.60;41.60;;;;;;20827904;28;20037;-21
2021/03/24 15:24:22;;;;;;;8.18;5.50;;;19.50;41.60;;;;;;20826083;28;20167;-20
2021/03/24 15:34:39;;;;;;;9.40;4.82;;;19.50;41.70;;;;;;20816275;28;20131;-25
2021/03/24 15:44:53;;;;;;;10.65;4.88;;;19.50;41.70;;;;;;20824237;28;20032;-24
2021/03/24 15:55:03;;;;;;;11.15;5.45;;;19.50;41.80;;;;;;20825421;28;20656;-23
2021/03/24 16:05:27;;;;;;;34.03;7.82;;;19.50;41.90;;;;;;20823991;28;20038;-23
2021/03/24 16:15:37;;;;;;;30.35;8.07;;;19.50;42.60;;;;;;20818138;28;20050;-22
2021/03/24 16:26:03;;;;;;;25.63;6.95;;;19.50;42.50;;;;;;20828939;28;20389;-23
2021/03/24 16:36:25;;;;;;;22.65;6.28;;;19.50;42.60;;;;;;20854744;23;20045;-23
2021/03/24 16:46:59;;;;;;;19.73;6.30;;;19.50;42.70;;;;;;20895794;28;20033;-21
2021/03/24 16:57:13;;;;;;;15.82;6.72;;;19.70;42.40;;;;;;20904379;28;20041;-22
2021/03/24 17:07:22;;;;;;;10.57;5.90;;;20.30;41.20;;;;;;20904383;28;20429;-21
2021/03/24 17:17:41;;;;;;;10.32;4.75;;;21.00;39.70;;;;;;20873725;28;20021;-25
2021/03/24 17:27:42;;;;;;;9.80;4.70;;;21.60;38.60;;;;;;20819833;28;20029;-27
2021/03/24 17:38:34;;;;;;;12.20;4.07;;;22.20;37.70;;;;;;20839543;28;20072;-24
2021/03/24 17:48:47;;;;;;;11.15;4.03;;;22.90;36.90;;;;;;20902612;28;20555;-22
2021/03/24 17:59:12;;;;;;;11.57;7.10;;;23.30;36.00;;;;;;20852756;28;20457;-23
2021/03/24 18:09:29;;;;;;;17.77;8.13;;;23.40;35.80;;;;;;20905165;28;20025;-20
2021/03/24 18:19:42;;;;;;;18.85;12.50;;;23.10;36.30;;;;;;20903244;28;20025;-23
2021/03/24 18:30:16;;;;;;;22.17;13.57;;;23.10;36.60;;;;;;20883385;28;20396;-22
2021/03/24 18:40:22;;;;;;;22.63;13.75;;;22.90;37.40;;;;;;20905121;28;20053;-22
2021/03/24 18:50:29;;;;;;;22.08;14.75;;;22.70;37.90;;;;;;20911299;28;20032;-22
2021/03/24 19:00:33;;;;;;;17.63;11.98;;;22.60;38.30;;;;;;20937140;28;20029;-27
2021/03/24 19:10:56;;;;;;;15.55;10.82;;;22.60;38.70;;;;;;20935804;28;20554;-22
2021/03/24 19:20:59;;;;;;;17.00;11.05;;;22.50;38.70;;;;;;20908904;28;20102;-24
2021/03/24 19:31:06;;;;;;;15.73;9.93;;;22.50;38.60;;;;;;20907532;28;20108;-24
2021/03/24 19:41:10;;;;;;;15.43;10.02;;;22.30;38.90;;;;;;20896852;28;20037;-25
2021/03/24 19:51:11;;;;;;;24.27;9.45;;;22.30;38.90;;;;;;20888951;28;20039;-22
2021/03/24 20:01:33;;;;;;;17.00;8.13;;;22.20;39.60;;;;;;20826432;28;20697;-25
2021/03/24 20:11:39;;;;;;;17.80;7.50;;;22.10;39.40;;;;;;20834346;28;20533;-22
2021/03/24 20:21:44;;;;;;;15.98;7.40;;;22.10;39.60;;;;;;20889498;28;20382;-24
2021/03/24 20:32:05;;;;;;;13.50;6.68;;;22.10;39.60;;;;;;20881431;28;20028;-19
2021/03/24 20:42:10;;;;;;;9.80;6.93;;;22.10;39.90;;;;;;20842285;28;20401;-22
2021/03/24 20:52:10;;;;;;;16.98;8.02;;;22.10;40.00;;;;;;20819494;28;20064;-25
2021/03/24 21:02:21;;;;;;;12.07;6.70;;;22.00;40.10;;;;;;20818142;28;20034;-23
2021/03/24 21:12:26;;;;;;;9.52;5.90;;;22.20;40.30;;;;;;20819780;28;20461;-24
2021/03/24 21:22:27;;;;;;;14.43;5.97;;;22.00;40.80;;;;;;20831190;28;20472;-21
2021/03/24 21:32:27;;;;;;;14.75;5.72;;;21.90;41.10;;;;;;20831931;28;20127;-23
2021/03/24 21:42:28;;;;;;;16.58;6.20;;;21.80;41.10;;;;;;20831676;28;20073;-23
2021/03/24 21:52:33;;;;;;;9.53;5.77;;;21.60;41.20;;;;;;20831690;28;20053;-24
2021/03/24 22:02:58;;;;;;;10.07;6.00;;;21.50;41.20;;;;;;20829977;28;20585;-24
2021/03/24 22:13:08;;;;;;;10.57;5.90;;;21.50;41.40;;;;;;20830027;28;20090;-23
2021/03/24 22:23:11;;;;;;;10.23;5.53;;;21.40;41.40;;;;;;20828937;28;20033;-22
2021/03/24 22:33:22;;;;;;;8.40;5.50;;;21.20;41.40;;;;;;20828165;28;20120;-23
2021/03/24 22:43:23;;;;;;;14.98;5.45;;;21.20;41.60;;;;;;20826401;28;20116;-21
2021/03/24 22:53:53;;;;;;;8.23;5.88;;;21.00;41.70;;;;;;20826783;28;20045;-22
2021/03/24 23:03:55;;;;;;;11.77;5.82;;;20.90;41.80;;;;;;20826675;28;20026;-20
2021/03/24 23:14:33;;;;;;;8.55;5.00;;;20.90;41.90;;;;;;20825114;28;20104;-22
2021/03/24 23:24:34;;;;;;;7.47;4.90;;;20.80;42.00;;;;;;20827177;28;20036;-20
2021/03/24 23:34:35;;;;;;;5.30;4.10;;;20.80;41.90;;;;;;20831396;28;20128;-24
2021/03/24 23:44:36;;;;;;;9.10;5.22;;;20.70;42.00;;;;;;20843137;28;20030;-22
2021/03/24 23:54:37;;;;;;;12.30;4.70;;;20.60;42.30;;;;;;20853937;23;20048;-20
